createdAt,value
2022-10-22T00:01:21.105Z,1.52
2022-10-22T00:03:47.359Z,1.45
2022-10-22T00:06:13.612Z,1.52
2022-10-22T00:08:39.949Z,1.55
2022-10-22T00:11:13.526Z,1.75
2022-10-22T00:13:40.625Z,1.27
2022-10-22T00:16:07.440Z,1.90
2022-10-22T00:18:33.720Z,1.52
2022-10-22T00:21:00.010Z,1.35
2022-10-22T00:23:26.378Z,1.45
2022-10-22T00:25:53.371Z,2.05
2022-10-22T00:28:19.809Z,1.90
2022-10-22T00:30:46.103Z,1.60
2022-10-22T00:33:12.748Z,1.45
2022-10-22T00:35:39.122Z,1.90
2022-10-22T00:38:05.402Z,1.30
2022-10-22T00:40:31.718Z,1.80
2022-10-22T00:42:57.984Z,1.48
2022-10-22T00:45:27.430Z,1.45
2022-10-22T00:47:58.824Z,1.80
2022-10-22T00:50:56.399Z,2.05
2022-10-22T00:53:25.776Z,1.60
2022-10-22T00:55:53.002Z,1.40
2022-10-22T00:58:21.172Z,1.50
2022-10-22T01:00:48.011Z,1.60
2022-10-22T01:03:14.731Z,1.50
2022-10-22T01:05:46.787Z,1.67
2022-10-22T01:08:18.212Z,1.48
2022-10-22T01:10:47.331Z,1.83
2022-10-22T01:13:28.727Z,1.48
2022-10-22T01:16:00.366Z,1.58
2022-10-22T01:18:37.919Z,1.40
2022-10-22T01:21:13.414Z,1.13
2022-10-22T01:23:45.753Z,1.73
2022-10-22T01:26:30.867Z,1.80
2022-10-22T01:29:00.236Z,1.60
2022-10-22T01:31:29.999Z,1.60
2022-10-22T01:33:57.321Z,1.80
2022-10-22T01:36:23.655Z,1.83
2022-10-22T01:38:50.841Z,2.20
2022-10-22T01:41:17.156Z,1.50
2022-10-22T01:43:43.456Z,1.73
2022-10-22T01:46:11.335Z,1.80
2022-10-22T01:48:37.526Z,1.70
2022-10-22T01:51:03.760Z,1.65
2022-10-22T01:53:33.226Z,1.70
2022-10-22T01:56:18.521Z,1.60
2022-10-22T01:59:03.791Z,1.52
2022-10-22T02:01:42.700Z,1.60
2022-10-22T02:04:16.889Z,1.50
2022-10-22T02:06:44.387Z,1.65
2022-10-22T02:09:11.477Z,1.55
2022-10-22T02:11:38.081Z,1.55
2022-10-22T02:14:05.036Z,1.40
2022-10-22T02:16:36.349Z,1.60
2022-10-22T02:19:05.899Z,1.90
2022-10-22T02:21:32.226Z,1.65
2022-10-22T02:23:58.592Z,1.70
2022-10-22T02:26:31.264Z,1.50
2022-10-22T02:29:06.764Z,1.58
2022-10-22T02:31:35.157Z,1.57
2022-10-22T02:34:04.923Z,1.85
2022-10-22T02:36:32.153Z,2.25
2022-10-22T02:38:59.033Z,1.50
2022-10-22T02:41:25.425Z,1.58
2022-10-22T02:43:53.857Z,1.50
2022-10-22T02:46:20.469Z,1.30
2022-10-22T02:48:47.210Z,1.50
2022-10-22T02:51:13.528Z,1.60
2022-10-22T02:53:39.889Z,1.75
2022-10-22T02:56:06.435Z,1.50
2022-10-22T02:58:32.825Z,1.65
2022-10-22T03:00:59.221Z,1.45
2022-10-22T03:03:25.485Z,1.70
2022-10-22T03:05:51.864Z,1.58
2022-10-22T03:08:18.247Z,1.50
2022-10-22T03:10:44.593Z,1.50
2022-10-22T03:13:10.924Z,1.75
2022-10-22T03:15:37.293Z,1.42
2022-10-22T03:18:03.904Z,1.63
2022-10-22T03:20:30.240Z,1.50
2022-10-22T03:22:57.314Z,1.58
2022-10-22T03:25:25.351Z,1.55
2022-10-22T03:27:52.436Z,1.63
2022-10-22T03:30:18.788Z,1.48
2022-10-22T03:32:45.126Z,1.55
2022-10-22T03:35:11.437Z,1.80
2022-10-22T03:37:38.150Z,1.70
2022-10-22T03:40:05.565Z,1.50
2022-10-22T03:42:32.329Z,1.60
2022-10-22T03:44:58.637Z,1.88
2022-10-22T03:47:24.921Z,1.50
2022-10-22T03:49:51.640Z,1.90
2022-10-22T03:52:18.115Z,1.48
2022-10-22T03:54:44.741Z,1.80
2022-10-22T03:57:11.346Z,1.70
2022-10-22T03:59:38.776Z,2.00
2022-10-22T04:02:05.271Z,1.55
2022-10-22T04:04:31.586Z,1.60
2022-10-22T04:06:57.937Z,1.60
2022-10-22T04:09:24.382Z,1.60
2022-10-22T04:11:50.714Z,1.50
2022-10-22T04:14:17.065Z,1.45
2022-10-22T04:16:43.364Z,1.70
2022-10-22T04:19:09.651Z,1.50
2022-10-22T04:21:35.994Z,1.40
2022-10-22T04:24:02.289Z,1.52
2022-10-22T04:26:28.560Z,1.60
2022-10-22T04:28:54.800Z,1.58
2022-10-22T04:31:22.466Z,1.70
2022-10-22T04:33:52.285Z,1.60
2022-10-22T04:36:18.736Z,1.50
2022-10-22T04:38:46.329Z,1.33
2022-10-22T04:41:12.739Z,1.40
2022-10-22T04:43:39.526Z,1.80
2022-10-22T04:46:09.332Z,2.10
2022-10-22T04:48:36.387Z,1.70
2022-10-22T04:51:03.278Z,1.75
2022-10-22T04:53:29.623Z,1.63
2022-10-22T04:55:55.880Z,1.60
2022-10-22T04:58:22.113Z,1.70
2022-10-22T05:00:48.486Z,1.77
2022-10-22T05:03:14.780Z,1.52
2022-10-22T05:05:40.998Z,1.67
2022-10-22T05:08:07.256Z,1.67
2022-10-22T05:10:33.562Z,1.90
2022-10-22T05:12:59.915Z,1.63
2022-10-22T05:15:26.200Z,1.40
2022-10-22T05:17:52.473Z,2.25
2022-10-22T05:20:18.799Z,1.35
2022-10-22T05:22:45.075Z,1.60
2022-10-22T05:25:12.172Z,1.50
2022-10-22T05:27:38.621Z,1.40
2022-10-22T05:30:05.640Z,2.30
2022-10-22T05:32:31.913Z,1.80
2022-10-22T05:34:58.207Z,1.52
2022-10-22T05:37:24.490Z,1.48
2022-10-22T05:40:01.662Z,2.05
2022-10-22T05:42:37.057Z,1.35
2022-10-22T05:45:04.018Z,1.83
2022-10-22T05:47:30.849Z,1.92
2022-10-22T05:49:57.436Z,2.10
2022-10-22T05:52:24.041Z,1.70
2022-10-22T05:54:50.491Z,1.60
2022-10-22T05:57:17.096Z,2.03
2022-10-22T05:59:43.526Z,1.80
2022-10-22T06:02:09.949Z,1.60
2022-10-22T06:04:36.264Z,1.73
2022-10-22T06:07:02.878Z,1.60
2022-10-22T06:09:30.524Z,1.70
2022-10-22T06:11:57.685Z,1.42
2022-10-22T06:14:24.664Z,2.25
2022-10-22T06:16:51.480Z,2.80
2022-10-22T06:19:19.008Z,1.90
2022-10-22T06:21:45.605Z,1.90
2022-10-22T06:24:11.994Z,1.67
2022-10-22T06:26:38.470Z,1.63
2022-10-22T06:29:04.837Z,1.75
2022-10-22T06:31:37.834Z,2.38
2022-10-22T06:34:05.213Z,1.92
2022-10-22T06:36:32.064Z,2.10
2022-10-22T06:38:58.591Z,2.42
2022-10-22T06:41:28.632Z,1.83
2022-10-22T06:44:02.968Z,2.35
2022-10-22T06:46:33.670Z,1.73
2022-10-22T06:49:03.956Z,1.77
2022-10-22T06:51:30.402Z,1.75
2022-10-22T06:53:57.925Z,2.20
2022-10-22T06:56:25.849Z,2.20
2022-10-22T06:58:54.198Z,1.38
2022-10-22T07:01:23.085Z,1.58
2022-10-22T07:03:53.225Z,1.55
2022-10-22T07:06:20.092Z,1.73
2022-10-22T07:08:46.589Z,2.33
2022-10-22T07:11:14.975Z,1.98
2022-10-22T07:13:41.474Z,1.80
2022-10-22T07:16:08.030Z,1.52
2022-10-22T07:18:34.878Z,1.58
2022-10-22T07:21:01.460Z,1.65
2022-10-22T07:23:33.972Z,1.77
2022-10-22T07:26:22.807Z,1.58
2022-10-22T07:31:34.231Z,2.13
2022-10-22T07:34:00.923Z,1.90
2022-10-22T07:36:27.387Z,1.90
2022-10-22T07:38:55.337Z,1.73
2022-10-22T07:41:21.895Z,1.73
2022-10-22T07:43:48.358Z,1.80
2022-10-22T07:46:14.728Z,1.50
2022-10-22T07:48:41.217Z,1.73
2022-10-22T07:51:07.843Z,1.60
2022-10-22T07:53:34.381Z,1.70
2022-10-22T07:56:01.065Z,1.70
2022-10-22T07:58:27.559Z,1.80
2022-10-22T08:00:58.619Z,1.63
2022-10-22T08:03:27.405Z,1.70
2022-10-22T08:05:54.246Z,1.58
2022-10-22T08:08:20.756Z,2.17
2022-10-22T08:10:48.188Z,1.50
2022-10-22T08:13:14.954Z,1.30
2022-10-22T08:18:34.454Z,1.70
2022-10-22T08:21:00.807Z,1.50
2022-10-22T08:23:28.766Z,1.70
2022-10-22T08:25:55.710Z,2.22
2022-10-22T08:28:22.422Z,1.40
2022-10-22T08:30:51.779Z,1.30
2022-10-22T08:33:18.109Z,1.65
2022-10-22T08:35:48.355Z,1.65
2022-10-22T08:38:14.572Z,1.83
2022-10-22T08:40:41.228Z,1.63
2022-10-22T08:43:24.529Z,1.63
2022-10-22T08:46:09.494Z,1.30
2022-10-22T08:48:53.931Z,1.33
2022-10-22T08:51:25.802Z,1.40
2022-10-22T08:54:01.444Z,1.42
2022-10-22T08:56:28.616Z,1.52
2022-10-22T08:59:07.215Z,1.58
2022-10-22T09:01:41.644Z,1.50
2022-10-22T09:04:26.716Z,1.48
2022-10-22T09:06:54.455Z,1.50
2022-10-22T09:09:21.400Z,1.50
2022-10-22T09:11:51.177Z,2.03
2022-10-22T09:14:18.885Z,1.77
2022-10-22T09:17:24.113Z,1.50
2022-10-22T09:20:03.892Z,1.50
2022-10-22T09:22:52.495Z,1.45
2022-10-22T09:25:23.412Z,1.48
2022-10-22T09:27:50.481Z,1.73
2022-10-22T09:30:18.467Z,1.10
2022-10-22T09:32:44.954Z,1.25
2022-10-22T09:35:12.358Z,1.33
2022-10-22T09:37:47.291Z,1.65
2022-10-22T09:40:15.097Z,1.27
2022-10-22T09:42:41.769Z,1.08
2022-10-22T09:45:16.046Z,1.50
2022-10-22T09:48:00.541Z,1.25
2022-10-22T09:50:30.512Z,1.80
2022-10-22T09:53:01.161Z,1.55
2022-10-22T09:55:27.986Z,1.33
2022-10-22T09:57:59.540Z,1.30
2022-10-22T10:00:26.439Z,1.10
2022-10-22T10:02:57.492Z,1.38
2022-10-22T10:05:32.121Z,1.30
2022-10-22T10:07:59.437Z,1.35
2022-10-22T10:10:29.134Z,1.38
2022-10-22T10:13:00.181Z,1.33
2022-10-22T10:15:52.906Z,1.00
2022-10-22T10:18:38.167Z,1.27
2022-10-22T10:21:04.612Z,0.80
2022-10-22T10:23:41.464Z,1.10
2022-10-22T10:26:07.858Z,1.02
2022-10-22T10:28:34.149Z,1.25
2022-10-22T10:31:00.484Z,1.20
2022-10-22T10:33:35.260Z,1.35
2022-10-22T10:36:12.008Z,0.80
2022-10-22T10:38:41.114Z,1.33
2022-10-22T10:41:07.368Z,0.77
2022-10-22T10:43:48.590Z,1.20
2022-10-22T10:46:36.960Z,1.08
2022-10-22T10:49:03.593Z,1.13
2022-10-22T10:51:48.752Z,1.00
2022-10-22T10:54:14.983Z,0.90
2022-10-22T10:56:44.499Z,2.22
2022-10-22T11:02:16.596Z,1.27
2022-10-22T11:04:52.101Z,1.30
2022-10-22T11:07:34.330Z,0.90
2022-10-22T11:10:14.791Z,1.00
2022-10-22T11:12:44.295Z,1.00
2022-10-22T11:15:13.908Z,1.08
2022-10-22T11:17:41.668Z,1.40
2022-10-22T11:20:19.820Z,1.30
2022-10-22T11:23:17.343Z,1.05
2022-10-22T11:25:43.434Z,1.55
2022-10-22T11:28:13.224Z,1.27
2022-10-22T11:30:40.936Z,1.30
2022-10-22T11:33:10.082Z,1.40
2022-10-22T11:35:39.614Z,1.73
2022-10-22T11:38:06.826Z,1.58
2022-10-22T11:40:36.172Z,1.48
2022-10-22T11:43:05.518Z,1.92
2022-10-22T11:45:35.010Z,1.30
2022-10-22T11:48:10.621Z,1.67
2022-10-22T11:50:52.782Z,1.23
2022-10-22T11:53:21.393Z,1.40
2022-10-22T11:55:49.350Z,1.20
2022-10-22T11:58:33.168Z,1.92
2022-10-22T12:01:02.556Z,1.25
2022-10-22T12:03:32.167Z,1.30
2022-10-22T12:06:15.743Z,1.38
2022-10-22T12:08:45.379Z,1.30
2022-10-22T12:11:11.828Z,1.10
2022-10-22T12:13:53.685Z,1.38
2022-10-22T12:16:32.193Z,1.48
2022-10-22T12:19:16.805Z,1.50
2022-10-22T12:21:45.121Z,1.77
2022-10-22T12:24:16.824Z,1.30
2022-10-22T12:26:43.929Z,1.20
2022-10-22T12:29:12.081Z,1.27
2022-10-22T12:31:40.276Z,1.60
2022-10-22T12:34:06.800Z,1.25
2022-10-22T12:36:34.444Z,1.23
2022-10-22T12:39:02.042Z,1.00
2022-10-22T12:41:35.246Z,1.30
2022-10-22T12:44:02.847Z,1.27
2022-10-22T12:46:30.579Z,1.65
2022-10-22T12:48:59.652Z,1.30
2022-10-22T12:51:26.369Z,1.20
2022-10-22T12:53:54.080Z,1.40
2022-10-22T12:56:28.481Z,1.00
2022-10-22T12:58:59.680Z,1.05
2022-10-22T13:01:33.721Z,1.67
2022-10-22T13:04:19.556Z,1.02
2022-10-22T13:06:47.060Z,1.10
2022-10-22T13:09:19.674Z,1.40
2022-10-22T13:12:05.865Z,1.27
2022-10-22T13:14:37.389Z,1.00
2022-10-22T13:17:03.671Z,1.15
2022-10-22T13:19:37.680Z,1.08
2022-10-22T13:22:04.314Z,1.30
2022-10-22T13:24:31.129Z,1.08
2022-10-22T13:26:58.090Z,1.25
2022-10-22T13:29:26.309Z,1.13
2022-10-22T13:31:53.891Z,1.00
2022-10-22T13:34:22.298Z,1.10
2022-10-22T13:36:49.334Z,1.23
2022-10-22T13:39:23.314Z,1.30
2022-10-22T13:41:53.410Z,1.10
2022-10-22T13:44:20.047Z,1.13
2022-10-22T13:46:47.198Z,1.30
2022-10-22T13:49:18.163Z,1.00
2022-10-22T13:51:44.725Z,1.10
2022-10-22T13:54:15.053Z,0.88
2022-10-22T13:56:41.555Z,1.40
2022-10-22T13:59:08.861Z,0.88
2022-10-22T14:01:36.653Z,1.27
2022-10-22T14:04:04.163Z,0.98
2022-10-22T14:06:31.540Z,1.27
2022-10-22T14:08:58.956Z,1.10
2022-10-22T14:11:28.463Z,0.77
2022-10-22T14:13:55.100Z,1.10
2022-10-22T14:16:22.938Z,1.20
2022-10-22T14:18:49.881Z,1.20
2022-10-22T14:21:17.279Z,1.10
2022-10-22T14:23:45.096Z,1.20
2022-10-22T14:26:18.379Z,0.88
2022-10-22T14:29:08.008Z,1.20
2022-10-22T14:33:57.905Z,1.10
2022-10-22T14:36:24.625Z,1.00
2022-10-22T14:38:51.115Z,1.17
2022-10-22T14:41:21.712Z,1.05
2022-10-22T14:43:48.638Z,1.20
2022-10-22T14:46:17.413Z,1.30
2022-10-22T14:48:43.969Z,1.10
2022-10-22T14:51:12.552Z,1.73
2022-10-22T14:53:40.803Z,1.30
2022-10-22T14:56:07.542Z,1.40
2022-10-22T14:58:33.888Z,0.90
2022-10-22T15:01:01.767Z,1.00
2022-10-22T15:03:28.107Z,1.40
2022-10-22T15:05:55.704Z,1.17
2022-10-22T15:08:22.678Z,1.40
2022-10-22T15:11:05.467Z,1.08
2022-10-22T15:13:32.589Z,1.08
2022-10-22T15:16:00.174Z,1.00
2022-10-22T15:18:26.739Z,1.10
2022-10-22T15:21:00.644Z,1.08
2022-10-22T15:23:27.469Z,0.82
2022-10-22T15:25:54.219Z,1.17
2022-10-22T15:28:20.631Z,1.00
2022-10-22T15:30:57.032Z,1.10
2022-10-22T15:33:26.176Z,1.17
2022-10-22T15:35:52.538Z,1.10
2022-10-22T15:38:19.043Z,1.67
2022-10-22T15:40:45.651Z,0.90
2022-10-22T15:43:12.135Z,1.30
2022-10-22T15:45:38.807Z,1.60
2022-10-22T15:48:05.311Z,1.00
2022-10-22T15:50:31.963Z,1.25
2022-10-22T15:52:58.337Z,1.20
2022-10-22T15:55:24.653Z,0.85
2022-10-22T15:57:55.188Z,0.80
2022-10-22T16:00:22.947Z,0.93
2022-10-22T16:02:49.257Z,0.95
2022-10-22T16:05:15.661Z,1.02
2022-10-22T16:07:42.888Z,1.45
2022-10-22T16:10:12.764Z,1.38
2022-10-22T16:12:40.801Z,1.23
2022-10-22T16:15:08.088Z,0.95
2022-10-22T16:17:34.450Z,1.38
2022-10-22T16:20:00.875Z,1.23
2022-10-22T16:22:27.168Z,1.30
2022-10-22T16:24:53.517Z,1.00
2022-10-22T16:27:19.863Z,1.20
2022-10-22T16:29:46.151Z,1.10
2022-10-22T16:32:13.202Z,0.80
2022-10-22T16:34:39.583Z,0.95
2022-10-22T16:37:10.198Z,1.17
2022-10-22T16:39:36.786Z,1.10
2022-10-22T16:42:03.124Z,1.15
2022-10-22T16:44:29.539Z,1.20
2022-10-22T16:46:55.796Z,1.00
2022-10-22T16:49:22.187Z,0.93
2022-10-22T16:51:48.457Z,1.20
2022-10-22T16:54:15.688Z,1.25
2022-10-22T16:56:42.540Z,1.00
2022-10-22T16:59:09.061Z,1.00
2022-10-22T17:01:40.411Z,1.40
2022-10-22T17:04:07.432Z,1.40
2022-10-22T17:06:33.938Z,1.20
2022-10-22T17:09:00.349Z,1.23
2022-10-22T17:11:29.781Z,1.33
2022-10-22T17:13:56.266Z,1.10
2022-10-22T17:16:23.417Z,1.20
2022-10-22T17:18:50.000Z,1.10
2022-10-22T17:21:16.501Z,1.05
2022-10-22T17:23:43.188Z,1.10
2022-10-22T17:26:13.621Z,0.80
2022-10-22T17:28:39.886Z,1.30
2022-10-22T17:31:11.609Z,0.90
2022-10-22T17:33:37.911Z,1.00
2022-10-22T17:36:12.756Z,1.08
2022-10-22T17:38:40.389Z,1.00
2022-10-22T17:41:08.713Z,1.15
2022-10-22T17:43:37.445Z,1.15
2022-10-22T17:46:04.916Z,1.20
2022-10-22T17:48:31.645Z,1.15
2022-10-22T17:50:59.244Z,1.15
2022-10-22T17:53:26.012Z,1.00
2022-10-22T17:56:00.847Z,1.02
2022-10-22T17:58:29.205Z,1.50
2022-10-22T18:00:55.612Z,1.42
2022-10-22T18:03:22.019Z,1.40
2022-10-22T18:05:48.452Z,1.50
2022-10-22T18:08:15.285Z,1.63
2022-10-22T18:10:41.771Z,1.27
2022-10-22T18:13:11.039Z,1.73
2022-10-22T18:15:37.358Z,1.50
2022-10-22T18:18:04.043Z,1.20
2022-10-22T18:20:30.665Z,1.52
2022-10-22T18:22:56.994Z,1.35
2022-10-22T18:25:23.414Z,1.35
2022-10-22T18:27:49.709Z,1.73
2022-10-22T18:30:16.130Z,1.92
2022-10-22T18:32:42.445Z,1.48
2022-10-22T18:35:08.830Z,1.40
2022-10-22T18:37:36.465Z,1.50
2022-10-22T18:40:03.357Z,1.58
2022-10-22T18:43:20.376Z,1.63
2022-10-22T18:45:47.787Z,1.70
2022-10-22T18:48:15.443Z,1.65
2022-10-22T18:50:41.852Z,2.00
2022-10-22T18:53:08.372Z,1.73
2022-10-22T18:55:37.672Z,2.05
2022-10-22T18:58:03.914Z,2.47
2022-10-22T19:00:30.230Z,1.67
2022-10-22T19:02:56.958Z,1.65
2022-10-22T19:05:23.323Z,1.85
2022-10-22T19:07:50.240Z,1.88
2022-10-22T19:10:17.240Z,2.08
2022-10-22T19:12:43.496Z,1.60
2022-10-22T19:15:10.362Z,1.50
2022-10-22T19:17:36.695Z,1.67
2022-10-22T19:20:03.225Z,1.52
2022-10-22T19:22:33.030Z,2.30
2022-10-22T19:24:59.354Z,1.35
2022-10-22T19:27:30.301Z,2.05
2022-10-22T19:29:57.005Z,1.40
2022-10-22T19:32:25.249Z,1.70
2022-10-22T19:34:54.220Z,1.67
2022-10-22T19:37:20.668Z,1.70
2022-10-22T19:39:48.948Z,1.80
2022-10-22T19:42:15.364Z,2.00
2022-10-22T19:44:41.660Z,1.50
2022-10-22T19:47:09.512Z,1.75
2022-10-22T19:49:36.012Z,1.50
2022-10-22T19:52:02.805Z,2.05
2022-10-22T19:54:40.942Z,1.92
2022-10-22T19:57:07.889Z,2.03
2022-10-22T19:59:34.665Z,1.60
2022-10-22T20:02:00.966Z,1.90
2022-10-22T20:04:28.311Z,1.80
2022-10-22T20:06:55.099Z,2.58
2022-10-22T20:09:21.698Z,2.05
2022-10-22T20:11:48.522Z,1.73
2022-10-22T20:14:15.591Z,1.83
2022-10-22T20:16:42.156Z,1.80
2022-10-22T20:19:08.847Z,2.05
2022-10-22T20:21:35.328Z,1.85
2022-10-22T20:24:02.092Z,2.20
2022-10-22T20:26:28.663Z,1.80
2022-10-22T20:28:55.756Z,2.28
2022-10-22T20:31:24.259Z,1.80
2022-10-22T20:33:50.990Z,2.00
2022-10-22T20:36:18.899Z,1.83
2022-10-22T20:38:48.158Z,2.10
2022-10-22T20:41:16.701Z,2.13
2022-10-22T20:43:44.248Z,1.98
2022-10-22T20:49:16.860Z,1.95
2022-10-22T20:51:43.631Z,2.03
2022-10-22T20:54:10.329Z,2.00
2022-10-22T20:56:38.228Z,2.00
2022-10-22T20:59:05.194Z,1.88
2022-10-22T21:01:32.633Z,1.90
2022-10-22T21:04:01.957Z,1.80
2022-10-22T21:06:30.181Z,2.05
2022-10-22T21:08:56.925Z,1.80
2022-10-22T21:11:23.556Z,1.98
2022-10-22T21:13:50.334Z,2.55
2022-10-22T21:16:17.576Z,2.70
2022-10-22T21:18:47.382Z,2.40
2022-10-22T21:21:15.033Z,2.17
2022-10-22T21:23:42.723Z,2.33
2022-10-22T21:26:09.208Z,2.00
2022-10-22T21:28:38.704Z,2.33
2022-10-22T21:31:06.500Z,2.22
2022-10-22T21:33:35.726Z,2.13
2022-10-22T21:36:05.535Z,2.50
2022-10-22T21:38:32.518Z,2.55
2022-10-22T21:40:58.831Z,2.40
2022-10-22T21:43:25.309Z,2.42
2022-10-22T21:45:51.607Z,2.22
2022-10-22T21:48:17.949Z,2.40
2022-10-22T21:50:45.007Z,1.90
2022-10-22T21:53:12.109Z,2.25
2022-10-22T21:55:42.440Z,2.40
2022-10-22T21:58:08.781Z,2.17
2022-10-22T22:00:35.623Z,2.13
2022-10-22T22:03:02.355Z,2.25
2022-10-22T22:05:29.071Z,2.30
2022-10-22T22:07:55.469Z,2.35
2022-10-22T22:10:22.200Z,2.35
2022-10-22T22:12:50.959Z,2.47
2022-10-22T22:15:17.503Z,2.22
2022-10-22T22:17:44.483Z,2.42
2022-10-22T22:20:11.425Z,2.15
2022-10-22T22:22:38.074Z,2.15
2022-10-22T22:25:04.693Z,2.10
2022-10-22T22:27:31.360Z,2.90
2022-10-22T22:29:57.873Z,2.30
2022-10-22T22:32:25.571Z,2.25
2022-10-22T22:34:52.389Z,2.22
2022-10-22T22:37:19.025Z,2.20
2022-10-22T22:39:45.571Z,2.22
2022-10-22T22:42:12.252Z,2.17
2022-10-22T22:54:23.952Z,2.17
2022-10-22T22:56:54.423Z,2.00
2022-10-22T22:59:30.700Z,2.08
2022-10-22T23:02:00.083Z,2.00
2022-10-22T23:04:26.731Z,2.15
2022-10-22T23:06:53.230Z,1.77
2022-10-22T23:12:53.577Z,1.88
2022-10-22T23:15:20.556Z,1.95
2022-10-22T23:17:50.410Z,1.80
2022-10-22T23:20:18.884Z,2.40
2022-10-22T23:22:45.582Z,2.00
2022-10-22T23:25:12.147Z,1.95
2022-10-22T23:27:38.625Z,2.00
2022-10-22T23:30:05.225Z,1.98
2022-10-22T23:32:31.655Z,2.00
2022-10-22T23:34:57.953Z,1.85
2022-10-22T23:37:24.329Z,2.17
2022-10-22T23:39:50.872Z,2.05
2022-10-22T23:42:17.195Z,2.55
2022-10-22T23:44:43.732Z,1.90
2022-10-22T23:47:10.057Z,2.13
2022-10-22T23:49:36.593Z,2.50
2022-10-22T23:52:03.409Z,2.05
2022-10-22T23:54:29.867Z,2.05
2022-10-22T23:56:56.219Z,2.08
2022-10-22T23:59:22.593Z,2.15
